Time;durP1;ratioP1;P1;durP2;ratioP2;P2;SDS_P1;SDS_P2;PMS_P1;PMS_P2;Temp;Humidity;BMP_temperature;BMP_pressure;BME280_temperature;BME280_humidity;BME280_pressure;Samples;Min_cycle;Max_cycle;Signal;HPM_P1;HPM_P2
2022/11/17 00:01:14;;;;;;;10.83;4.40;;;;;;;5.27;100.00;94695.47;5059747;28;20208;-74
2022/11/17 00:03:41;;;;;;;7.77;4.53;;;;;;;5.21;100.00;94696.19;5058633;28;20299;-74
2022/11/17 00:06:09;;;;;;;11.97;5.47;;;;;;;5.40;100.00;94694.81;5059262;28;20200;-74
2022/11/17 00:08:35;;;;;;;11.00;5.70;;;;;;;5.39;100.00;94688.78;5067010;28;20289;-75
2022/11/17 00:11:03;;;;;;;10.00;5.20;;;;;;;5.51;100.00;94697.75;5059083;28;20620;-74
2022/11/17 00:16:15;;;;;;;15.70;7.40;;;;;;;5.62;100.00;94705.13;5060900;28;20215;-73
2022/11/17 00:21:28;;;;;;;18.30;7.27;;;;;;;5.40;100.00;94706.06;5064091;28;20346;-74
2022/11/17 00:23:54;;;;;;;13.33;7.00;;;;;;;5.36;100.00;94707.44;5058962;28;20200;-74
2022/11/17 00:26:24;;;;;;;15.33;7.00;;;;;;;5.51;100.00;94682.91;5058933;28;20215;-74
2022/11/17 00:28:54;;;;;;;11.20;6.37;;;;;;;5.36;100.00;94694.38;5059167;28;20239;-74
2022/11/17 00:34:06;;;;;;;14.57;6.83;;;;;;;5.32;100.00;94685.31;5058009;28;20223;-74
2022/11/17 00:36:39;;;;;;;15.00;7.20;;;;;;;5.52;100.00;94678.47;5058556;28;20295;-74
2022/11/17 00:39:06;;;;;;;15.73;6.33;;;;;;;5.56;100.00;94679.72;5058833;28;20228;-74
2022/11/17 00:41:33;;;;;;;16.40;6.77;;;;;;;5.50;100.00;94685.72;5058666;28;20207;-74
2022/11/17 00:43:59;;;;;;;18.97;7.80;;;;;;;5.58;100.00;94688.22;5076013;28;20206;-74
2022/11/17 00:46:26;;;;;;;11.67;5.63;;;;;;;5.51;100.00;94682.09;5077897;28;20203;-74
2022/11/17 00:48:53;;;;;;;12.07;6.00;;;;;;;5.55;100.00;94678.94;5059581;28;20342;-74
2022/11/17 00:51:20;;;;;;;14.13;6.23;;;;;;;5.62;100.00;94673.78;5064789;28;20196;-74
2022/11/17 00:53:49;;;;;;;11.13;5.90;;;;;;;5.65;100.00;94666.38;5059153;28;20928;-74
2022/11/17 00:56:16;;;;;;;10.70;5.47;;;;;;;5.67;100.00;94682.66;5058843;28;20205;-74
2022/11/17 00:58:43;;;;;;;11.80;6.03;;;;;;;5.58;100.00;94668.09;5059154;28;20220;-74
2022/11/17 01:01:09;;;;;;;11.10;5.80;;;;;;;5.70;100.00;94647.53;5058584;28;20204;-74
2022/11/17 01:03:37;;;;;;;11.73;6.27;;;;;;;5.58;100.00;94639.38;5057768;28;20208;-74
2022/11/17 01:06:05;;;;;;;9.73;5.53;;;;;;;5.57;100.00;94660.47;5058965;28;20203;-74
2022/11/17 01:08:32;;;;;;;11.17;5.63;;;;;;;5.56;100.00;94633.53;5058139;28;20557;-74
2022/11/17 01:11:06;;;;;;;13.13;5.77;;;;;;;5.74;100.00;94635.69;5058711;28;20192;-74
2022/11/17 01:13:33;;;;;;;15.43;6.67;;;;;;;5.71;100.00;94633.47;5057864;28;20230;-74
2022/11/17 01:16:03;;;;;;;12.37;5.97;;;;;;;5.84;100.00;94621.38;5057752;28;20235;-71
2022/11/17 01:18:29;;;;;;;14.73;6.50;;;;;;;5.70;100.00;94627.44;5057894;28;20218;-75
2022/11/17 01:20:56;;;;;;;14.93;7.27;;;;;;;5.85;100.00;94616.97;5058218;28;20214;-74
2022/11/17 01:23:22;;;;;;;17.60;6.63;;;;;;;5.94;100.00;94606.16;5057421;28;20207;-74
2022/11/17 01:25:49;;;;;;;16.30;7.53;;;;;;;5.84;100.00;94594.41;5058242;28;20188;-74
2022/11/17 01:28:17;;;;;;;18.90;7.37;;;;;;;5.94;100.00;94592.31;5058150;28;20220;-74
2022/11/17 01:30:43;;;;;;;17.63;6.77;;;;;;;5.86;100.00;94593.25;5065923;28;20200;-74
2022/11/17 01:33:10;;;;;;;12.20;6.90;;;;;;;5.93;100.00;94595.91;5057303;28;20200;-74
2022/11/17 01:35:36;;;;;;;14.30;6.97;;;;;;;5.99;100.00;94595.16;5057651;28;20734;-74
2022/11/17 01:38:03;;;;;;;14.07;6.13;;;;;;;5.93;100.00;94590.69;5057688;28;20331;-74
2022/11/17 01:40:29;;;;;;;10.23;5.33;;;;;;;5.90;100.00;94588.47;5057949;28;20203;-73
2022/11/17 01:42:56;;;;;;;17.77;6.67;;;;;;;5.94;100.00;94584.47;5057019;28;20292;-74
2022/11/17 01:45:25;;;;;;;9.67;6.03;;;;;;;6.03;100.00;94594.59;5058121;28;20201;-74
2022/11/17 01:47:56;;;;;;;16.67;6.23;;;;;;;6.00;100.00;94604.63;5057667;28;20270;-74
2022/11/17 01:50:30;;;;;;;10.77;6.07;;;;;;;5.73;100.00;94610.59;5058005;28;20219;-74
2022/11/17 01:53:00;;;;;;;13.53;6.20;;;;;;;5.87;100.00;94607.94;5056885;28;20641;-73
2022/11/17 01:55:31;;;;;;;10.93;5.43;;;;;;;5.85;100.00;94617.75;5057214;28;20228;-74
2022/11/17 01:58:02;;;;;;;11.70;6.00;;;;;;;5.87;100.00;94609.72;5062602;28;20220;-73
2022/11/17 02:00:30;;;;;;;8.30;5.20;;;;;;;5.91;100.00;94611.78;5058091;28;20563;-72
2022/11/17 02:02:57;;;;;;;9.33;5.50;;;;;;;5.76;100.00;94625.91;5056601;28;20201;-73
2022/11/17 02:05:34;;;;;;;9.83;5.20;;;;;;;5.66;100.00;94615.72;5056620;28;20203;-73
2022/11/17 02:08:03;;;;;;;8.30;5.60;;;;;;;5.64;100.00;94604.66;5057834;28;20604;-70
2022/11/17 02:10:31;;;;;;;10.03;6.00;;;;;;;5.72;100.00;94588.84;5065370;28;20566;-71
2022/11/17 02:12:58;;;;;;;9.63;5.37;;;;;;;5.62;100.00;94558.81;5056657;28;20205;-74
2022/11/17 02:15:26;;;;;;;10.57;5.90;;;;;;;5.74;100.00;94554.69;5065238;28;20220;-73
2022/11/17 02:17:54;;;;;;;8.63;5.20;;;;;;;5.85;100.00;94543.78;5056812;28;20228;-70
2022/11/17 02:20:31;;;;;;;11.23;6.40;;;;;;;5.77;100.00;94549.16;5056732;28;20205;-72
2022/11/17 02:23:23;;;;;;;12.67;5.23;;;;;;;5.73;100.00;94540.03;5057003;28;20253;-75
2022/11/17 02:26:31;;;;;;;9.77;5.70;;;;;;;5.74;100.00;94552.91;5057089;28;20209;-73
2022/11/17 02:29:04;;;;;;;9.70;5.57;;;;;;;5.78;100.00;94546.34;5056090;28;20221;-70
2022/11/17 02:31:42;;;;;;;10.27;5.73;;;;;;;5.81;100.00;94553.78;5058280;28;20200;-71
2022/11/17 02:34:19;;;;;;;12.27;6.03;;;;;;;5.92;100.00;94555.06;5056545;28;20201;-74
2022/11/17 02:36:54;;;;;;;9.43;5.50;;;;;;;5.95;100.00;94546.88;5057867;28;20223;-73
2022/11/17 02:39:25;;;;;;;13.40;6.27;;;;;;;5.97;100.00;94531.78;5056972;28;20192;-72
2022/11/17 02:41:56;;;;;;;9.20;5.70;;;;;;;5.90;100.00;94536.97;5057078;28;20207;-74
2022/11/17 02:44:31;;;;;;;12.70;5.53;;;;;;;5.89;100.00;94524.91;5064115;28;20193;-75
2022/11/17 02:47:02;;;;;;;9.07;5.17;;;;;;;6.04;100.00;94511.75;5056974;28;20203;-73
2022/11/17 02:49:34;;;;;;;9.23;5.33;;;;;;;5.98;100.00;94502.84;5057009;28;20196;-70
2022/11/17 02:52:02;;;;;;;10.80;5.37;;;;;;;5.75;100.00;94510.13;5056987;28;20204;-73
2022/11/17 02:54:31;;;;;;;9.87;5.33;;;;;;;5.78;100.00;94517.59;5056141;28;20231;-71
2022/11/17 02:56:58;;;;;;;9.03;5.77;;;;;;;5.85;100.00;94504.56;5056403;28;20290;-71
2022/11/17 02:59:30;;;;;;;8.80;5.60;;;;;;;5.97;100.00;94521.34;5056695;28;20216;-72
2022/11/17 03:02:27;;;;;;;8.50;5.20;;;;;;;5.88;100.00;94530.31;5057005;28;20327;-71
2022/11/17 03:05:15;;;;;;;8.73;5.57;;;;;;;5.77;100.00;94533.47;5056617;28;20661;-73
2022/11/17 03:07:56;;;;;;;10.93;5.63;;;;;;;5.78;100.00;94514.16;5054177;28;20617;-74
2022/11/17 03:10:29;;;;;;;9.87;5.90;;;;;;;5.90;100.00;94515.28;5056745;28;20197;-74
2022/11/17 03:13:02;;;;;;;10.73;6.50;;;;;;;5.97;100.00;94509.09;5055994;28;20665;-73
2022/11/17 03:15:41;;;;;;;8.27;5.47;;;;;;;5.98;100.00;94505.47;5056744;28;20220;-74
2022/11/17 03:18:13;;;;;;;15.13;5.77;;;;;;;5.91;100.00;94495.97;5057803;28;20231;-73
2022/11/17 03:20:49;;;;;;;11.47;6.30;;;;;;;5.93;100.00;94504.44;5064393;28;20658;-74
2022/11/17 03:23:19;;;;;;;13.33;6.10;;;;;;;5.78;100.00;94498.47;5056047;28;20200;-74
2022/11/17 03:25:53;;;;;;;10.40;6.00;;;;;;;5.84;100.00;94479.44;5057401;28;20196;-73
2022/11/17 03:28:23;;;;;;;11.20;6.60;;;;;;;5.91;100.00;94495.97;5056278;28;20247;-74
2022/11/17 03:30:53;;;;;;;12.23;5.97;;;;;;;5.96;100.00;94467.44;5056138;28;20208;-74
2022/11/17 03:33:22;;;;;;;10.57;6.20;;;;;;;5.82;100.00;94450.88;5068259;28;20204;-74
2022/11/17 03:35:52;;;;;;;10.93;5.90;;;;;;;5.83;100.00;94454.28;5066739;28;20221;-73
2022/11/17 03:38:22;;;;;;;10.20;5.93;;;;;;;5.79;100.00;94440.00;5065543;28;20231;-74
2022/11/17 03:40:52;;;;;;;10.90;5.73;;;;;;;5.79;100.00;94416.47;5060197;28;20201;-73
2022/11/17 03:43:20;;;;;;;11.63;5.70;;;;;;;5.72;100.00;94392.09;5059264;28;20311;-74
2022/11/17 03:45:49;;;;;;;9.20;5.30;;;;;;;5.73;100.00;94391.91;5061780;28;20208;-73
2022/11/17 03:48:22;;;;;;;11.73;5.87;;;;;;;5.68;100.00;94396.09;5066328;28;20213;-73
2022/11/17 03:50:55;;;;;;;9.93;5.40;;;;;;;5.75;100.00;94412.59;5059626;28;20196;-74
2022/11/17 03:53:23;;;;;;;13.63;5.70;;;;;;;5.72;100.00;94413.00;5059298;28;20201;-74
2022/11/17 03:55:56;;;;;;;9.50;5.60;;;;;;;5.78;100.00;94414.84;5060061;28;20223;-73
2022/11/17 03:58:28;;;;;;;9.17;4.93;;;;;;;5.80;100.00;94418.09;5060265;28;20224;-74
2022/11/17 04:00:58;;;;;;;9.33;5.47;;;;;;;5.93;100.00;94415.56;5059985;28;20201;-74
2022/11/17 04:03:29;;;;;;;10.40;5.23;;;;;;;6.08;100.00;94430.13;5059361;28;20196;-74
2022/11/17 04:05:56;;;;;;;7.70;4.77;;;;;;;6.06;100.00;94437.38;5060185;28;20219;-73
2022/11/17 04:08:24;;;;;;;11.93;5.57;;;;;;;6.13;100.00;94454.66;5059599;28;20220;-74
2022/11/17 04:16:19;;;;;;;10.27;4.77;;;;;;;6.15;100.00;94493.72;5058833;28;20251;-74
2022/11/17 04:18:47;;;;;;;10.57;5.43;;;;;;;6.13;100.00;94520.03;5067255;28;20220;-74
2022/11/17 04:21:13;;;;;;;6.00;3.73;;;;;;;6.01;100.00;94525.19;5060311;28;20207;-74
2022/11/17 04:23:40;;;;;;;11.13;5.53;;;;;;;5.96;100.00;94523.16;5066070;28;20197;-73
2022/11/17 04:28:50;;;;;;;10.17;5.73;;;;;;;6.05;100.00;94514.97;5067805;28;20239;-73
2022/11/17 04:31:19;;;;;;;11.93;6.30;;;;;;;6.16;100.00;94509.22;5058906;28;20200;-73
2022/11/17 04:33:48;;;;;;;13.83;6.20;;;;;;;6.20;100.00;94523.53;5058124;28;20212;-74
2022/11/17 04:36:16;;;;;;;9.83;6.00;;;;;;;6.16;100.00;94514.44;5058746;28;20231;-74
2022/11/17 04:38:43;;;;;;;13.23;5.87;;;;;;;6.13;100.00;94517.44;5059330;28;20224;-74
2022/11/17 04:43:56;;;;;;;11.97;6.60;;;;;;;6.27;100.00;94487.75;5057857;28;21122;-74
2022/11/17 04:46:24;;;;;;;13.17;7.07;;;;;;;6.31;100.00;94489.00;5064631;28;20544;-73
2022/11/17 04:48:53;;;;;;;10.03;5.73;;;;;;;6.33;100.00;94486.97;5058911;28;20232;-73
2022/11/17 04:51:19;;;;;;;14.10;7.30;;;;;;;6.27;100.00;94482.50;5058968;28;20196;-73
2022/11/17 04:53:46;;;;;;;12.17;6.70;;;;;;;6.35;100.00;94474.53;5057794;28;20201;-73
2022/11/17 04:56:13;;;;;;;12.40;6.40;;;;;;;6.32;100.00;94472.28;5063877;28;20223;-74
2022/11/17 04:58:40;;;;;;;11.63;5.50;;;;;;;6.39;100.00;94460.06;5058726;28;20607;-70
2022/11/17 05:01:13;;;;;;;13.70;5.67;;;;;;;6.33;100.00;94460.81;5059714;28;20203;-73
2022/11/17 05:03:41;;;;;;;12.50;5.77;;;;;;;6.38;100.00;94463.66;5057272;28;20982;-73
2022/11/17 05:06:09;;;;;;;9.70;5.57;;;;;;;6.31;100.00;94462.84;5058306;28;20201;-73
2022/11/17 05:08:37;;;;;;;12.83;5.70;;;;;;;6.38;100.00;94450.59;5058333;28;20235;-73
2022/11/17 05:13:50;;;;;;;8.53;4.63;;;;;;;6.45;100.00;94454.03;5057246;28;20203;-73
2022/11/17 05:19:01;;;;;;;10.53;4.87;;;;;;;6.61;100.00;94456.31;5057693;28;20227;-73
2022/11/17 05:21:29;;;;;;;10.37;5.03;;;;;;;6.72;100.00;94453.94;5058089;28;20417;-71
2022/11/17 05:23:55;;;;;;;8.17;4.60;;;;;;;6.65;100.00;94457.53;5057413;28;20250;-71
2022/11/17 05:26:23;;;;;;;9.50;4.20;;;;;;;6.82;100.00;94450.94;5061282;28;20196;-71
2022/11/17 05:28:50;;;;;;;14.33;4.60;;;;;;;6.80;100.00;94448.53;5059230;28;20228;-71
2022/11/17 05:31:16;;;;;;;6.63;4.23;;;;;;;6.85;100.00;94437.47;5058062;28;20200;-71
2022/11/17 05:33:43;;;;;;;9.97;3.93;;;;;;;6.87;100.00;94448.53;5057162;28;20197;-71
2022/11/17 05:36:10;;;;;;;11.70;3.90;;;;;;;6.95;100.00;94430.84;5064080;28;20588;-71
2022/11/17 05:38:38;;;;;;;5.77;3.40;;;;;;;7.04;100.00;94423.59;5057584;28;20506;-71
2022/11/17 05:41:05;;;;;;;4.47;3.30;;;;;;;7.04;100.00;94434.06;5065958;28;21059;-71
2022/11/17 05:43:32;;;;;;;7.00;3.43;;;;;;;7.13;100.00;94427.63;5056892;28;20575;-71
2022/11/17 05:45:59;;;;;;;5.43;3.40;;;;;;;7.10;100.00;94425.44;5065643;28;20196;-71
2022/11/17 05:48:25;;;;;;;4.63;2.90;;;;;;;7.14;100.00;94426.63;5057755;28;20216;-71
2022/11/17 05:50:53;;;;;;;10.73;3.30;;;;;;;7.18;100.00;94438.31;5065531;28;20237;-71
2022/11/17 05:53:19;;;;;;;7.60;3.80;;;;;;;7.20;100.00;94428.47;5056596;28;20208;-72
2022/11/17 05:55:47;;;;;;;11.53;3.57;;;;;;;7.19;100.00;94435.50;5057131;28;20224;-72
2022/11/17 05:58:18;;;;;;;9.37;4.43;;;;;;;7.22;100.00;94437.75;5057059;28;20216;-72
2022/11/17 06:00:44;;;;;;;8.23;4.67;;;;;;;7.26;100.00;94433.72;5057273;28;20212;-71
2022/11/17 06:03:18;;;;;;;7.10;4.40;;;;;;;7.40;100.00;94438.75;5057177;28;20235;-71
2022/11/17 06:05:45;;;;;;;8.97;4.57;;;;;;;7.40;100.00;94443.97;5057095;28;20188;-71
2022/11/17 06:08:11;;;;;;;7.57;3.97;;;;;;;7.42;100.00;94441.97;5057352;28;20216;-71
2022/11/17 06:10:38;;;;;;;10.13;4.03;;;;;;;7.50;100.00;94449.63;5057721;28;20211;-71
2022/11/17 06:13:06;;;;;;;8.33;4.30;;;;;;;7.55;100.00;94455.09;5060875;28;20553;-72
2022/11/17 06:15:34;;;;;;;7.63;3.83;;;;;;;7.60;100.00;94463.16;5056938;28;20224;-71
2022/11/17 06:18:05;;;;;;;7.97;3.90;;;;;;;7.64;100.00;94459.13;5064937;28;20231;-71
2022/11/17 06:20:35;;;;;;;8.77;4.80;;;;;;;7.58;100.00;94465.16;5068478;28;20210;-72
2022/11/17 06:23:05;;;;;;;12.97;4.63;;;;;;;7.64;100.00;94472.22;5062929;28;20196;-72
2022/11/17 06:25:33;;;;;;;17.03;5.23;;;;;;;7.68;100.00;94478.66;5057528;28;20193;-71
2022/11/17 06:28:02;;;;;;;4.53;2.63;;;;;;;7.66;100.00;94488.56;5064032;28;20220;-70
2022/11/17 06:30:31;;;;;;;6.97;3.37;;;;;;;7.59;100.00;94482.50;5062792;28;20974;-70
2022/11/17 06:32:59;;;;;;;5.97;3.50;;;;;;;7.63;100.00;94486.31;5065494;28;20665;-72
2022/11/17 06:35:32;;;;;;;12.43;3.33;;;;;;;7.67;100.00;94481.50;5062119;28;20207;-71
2022/11/17 06:37:58;;;;;;;5.10;2.40;;;;;;;7.59;100.00;94498.22;5057160;28;20220;-70
2022/11/17 06:40:25;;;;;;;6.37;3.10;;;;;;;7.62;100.00;94487.31;5063437;28;21220;-70
2022/11/17 06:43:07;;;;;;;8.07;3.50;;;;;;;7.66;100.00;94482.50;5058029;28;20230;-71
2022/11/17 06:45:36;;;;;;;12.40;4.67;;;;;;;7.70;100.00;94473.22;5057054;28;20279;-72
2022/11/17 06:48:03;;;;;;;8.03;4.17;;;;;;;7.57;100.00;94479.25;5059557;28;20224;-71
2022/11/17 06:50:30;;;;;;;8.00;4.17;;;;;;;7.46;100.00;94482.50;5067506;28;20204;-71
2022/11/17 06:52:57;;;;;;;10.73;4.40;;;;;;;7.58;100.00;94480.09;5056040;28;20755;-71
2022/11/17 06:55:24;;;;;;;10.23;4.50;;;;;;;7.58;100.00;94469.59;5066910;28;20196;-71
2022/11/17 06:57:51;;;;;;;9.67;4.50;;;;;;;7.57;100.00;94466.16;5065301;28;20456;-71
2022/11/17 07:00:18;;;;;;;6.63;3.97;;;;;;;7.65;100.00;94465.97;5057331;28;20331;-71
2022/11/17 07:02:46;;;;;;;9.90;4.73;;;;;;;7.74;100.00;94464.75;5062033;28;20196;-72
2022/11/17 07:05:13;;;;;;;7.57;3.50;;;;;;;7.73;100.00;94476.25;5063977;28;20196;-71
2022/11/17 07:07:40;;;;;;;6.83;3.70;;;;;;;7.75;100.00;94482.13;5064979;28;20224;-70
2022/11/17 07:10:07;;;;;;;7.60;3.60;;;;;;;7.75;100.00;94487.34;5067297;28;20681;-69
2022/11/17 07:12:34;;;;;;;7.67;3.80;;;;;;;7.76;100.00;94478.47;5060016;28;20205;-72
2022/11/17 07:15:01;;;;;;;8.30;3.67;;;;;;;7.71;100.00;94480.88;5060693;28;20246;-71
2022/11/17 07:17:28;;;;;;;8.47;3.20;;;;;;;7.75;100.00;94470.81;5060902;28;20220;-72
2022/11/17 07:19:56;;;;;;;4.13;3.07;;;;;;;7.83;100.00;94474.03;5060488;28;20660;-68
2022/11/17 07:22:22;;;;;;;13.83;3.37;;;;;;;7.73;100.00;94489.34;5061212;28;20204;-69
2022/11/17 07:24:49;;;;;;;6.73;3.30;;;;;;;7.65;100.00;94486.13;5060809;28;20296;-72
2022/11/17 07:27:16;;;;;;;6.03;3.70;;;;;;;7.80;100.00;94486.72;5060469;28;20230;-71
2022/11/17 07:29:42;;;;;;;10.00;3.67;;;;;;;7.84;100.00;94490.56;5060514;28;20207;-70
2022/11/17 07:32:12;;;;;;;8.90;4.20;;;;;;;7.95;100.00;94490.75;5059875;28;20200;-72
2022/11/17 07:34:39;;;;;;;9.63;3.87;;;;;;;7.95;100.00;94485.50;5059641;28;20215;-72
2022/11/17 07:37:07;;;;;;;6.27;3.70;;;;;;;8.05;100.00;94478.03;5059330;28;20220;-71
2022/11/17 07:39:33;;;;;;;5.43;3.37;;;;;;;8.00;100.00;94475.22;5060288;28;20197;-70
2022/11/17 07:42:00;;;;;;;7.77;3.70;;;;;;;8.04;100.00;94471.19;5060345;28;20203;-70
2022/11/17 07:44:27;;;;;;;8.47;3.20;;;;;;;8.03;100.00;94467.75;5058981;28;20748;-70
2022/11/17 07:46:54;;;;;;;6.13;3.17;;;;;;;8.17;100.00;94468.56;5060046;28;20200;-70
2022/11/17 07:49:21;;;;;;;5.53;2.70;;;;;;;8.16;100.00;94469.56;5060487;28;20201;-71
2022/11/17 07:51:48;;;;;;;7.90;2.53;;;;;;;8.19;100.00;94456.06;5059913;28;20202;-70
2022/11/17 07:54:15;;;;;;;2.97;2.20;;;;;;;8.38;100.00;94455.22;5066425;28;20205;-69
2022/11/17 07:56:42;;;;;;;6.20;2.30;;;;;;;8.41;100.00;94452.16;5059749;28;20349;-71
2022/11/17 07:59:09;;;;;;;4.67;2.20;;;;;;;8.48;100.00;94447.69;5059933;28;20220;-69
2022/11/17 08:01:35;;;;;;;3.60;2.20;;;;;;;8.53;100.00;94446.06;5064615;28;20196;-70
2022/11/17 08:04:02;;;;;;;3.43;1.97;;;;;;;8.57;100.00;94447.25;5059527;28;20200;-70
2022/11/17 08:06:28;;;;;;;4.00;1.70;;;;;;;8.58;100.00;94433.91;5059682;28;20197;-72
2022/11/17 08:08:55;;;;;;;3.10;1.87;;;;;;;8.60;100.00;94428.47;5058935;28;20716;-69
2022/11/17 08:11:23;;;;;;;4.83;1.90;;;;;;;8.68;100.00;94418.53;5059197;28;20673;-70
2022/11/17 08:13:50;;;;;;;3.37;1.90;;;;;;;8.60;100.00;94429.28;5057849;28;20295;-69
2022/11/17 08:16:17;;;;;;;4.07;2.00;;;;;;;8.63;100.00;94433.28;5059655;28;20228;-72
2022/11/17 08:18:43;;;;;;;3.67;2.10;;;;;;;8.66;100.00;94425.00;5058490;28;20224;-71
2022/11/17 08:21:12;;;;;;;3.23;1.93;;;;;;;8.76;100.00;94426.16;5059708;28;20207;-69
2022/11/17 08:23:39;;;;;;;5.00;2.10;;;;;;;8.86;100.00;94426.53;5058726;28;20232;-70
2022/11/17 08:26:08;;;;;;;5.57;2.13;;;;;;;8.90;100.00;94409.31;5063476;28;20202;-72
2022/11/17 08:28:36;;;;;;;5.00;2.13;;;;;;;9.03;100.00;94427.63;5063476;28;20216;-72
2022/11/17 08:31:04;;;;;;;3.43;2.27;;;;;;;9.11;100.00;94424.75;5062724;28;20196;-71
2022/11/17 08:33:31;;;;;;;5.20;2.40;;;;;;;9.11;100.00;94419.50;5063910;28;20215;-72
2022/11/17 08:35:58;;;;;;;3.00;2.23;;;;;;;9.08;100.00;94431.22;5065100;28;20209;-69
2022/11/17 08:38:27;;;;;;;6.70;2.33;;;;;;;9.13;100.00;94439.28;5065713;28;20220;-72
2022/11/17 08:40:54;;;;;;;3.37;2.10;;;;;;;9.13;100.00;94434.03;5062721;28;20258;-72
2022/11/17 08:43:21;;;;;;;2.57;1.90;;;;;;;9.21;100.00;94427.72;5071696;28;20197;-71
2022/11/17 08:45:49;;;;;;;2.13;1.60;;;;;;;9.25;100.00;94431.53;5062038;28;20573;-72
2022/11/17 08:48:15;;;;;;;3.57;1.80;;;;;;;9.22;100.00;94438.00;5058905;28;20270;-72
2022/11/17 08:50:42;;;;;;;3.80;2.07;;;;;;;9.26;100.00;94444.44;5059051;28;20204;-72
2022/11/17 08:53:13;;;;;;;5.07;2.00;;;;;;;9.44;100.00;94441.09;5063494;28;20208;-72
2022/11/17 08:55:39;;;;;;;4.07;1.90;;;;;;;9.32;100.00;94442.81;5058825;28;20207;-69
2022/11/17 08:58:06;;;;;;;2.33;1.70;;;;;;;9.31;100.00;94452.50;5058927;28;20228;-72
2022/11/17 09:00:33;;;;;;;3.40;1.80;;;;;;;9.31;100.00;94456.97;5058783;28;20193;-72
2022/11/17 09:03:01;;;;;;;1.93;1.47;;;;;;;9.38;100.00;94466.44;5061347;28;20246;-69
2022/11/17 09:05:27;;;;;;;3.40;1.43;;;;;;;9.31;100.00;94467.50;5064995;28;20203;-70
2022/11/17 09:07:54;;;;;;;5.77;2.20;;;;;;;9.33;100.00;94465.44;5058016;28;20220;-72
2022/11/17 09:10:20;;;;;;;6.83;2.30;;;;;;;9.42;100.00;94469.41;5071204;28;20206;-70
2022/11/17 09:12:47;;;;;;;2.87;1.60;;;;;;;9.49;100.00;94472.81;5057949;28;20212;-73
2022/11/17 09:15:14;;;;;;;8.30;2.20;;;;;;;9.50;100.00;94467.34;5063664;28;20204;-71
2022/11/17 09:17:42;;;;;;;2.80;1.47;;;;;;;9.58;100.00;94461.03;5068643;28;20232;-72
2022/11/17 09:20:11;;;;;;;3.30;1.77;;;;;;;9.69;100.00;94471.66;5063987;28;20608;-70
2022/11/17 09:22:37;;;;;;;3.30;1.90;;;;;;;9.65;100.00;94475.75;5057486;28;20204;-72
2022/11/17 09:25:05;;;;;;;3.50;2.20;;;;;;;9.71;100.00;94480.13;5065604;28;20206;-71
2022/11/17 09:27:31;;;;;;;3.30;1.87;;;;;;;9.65;100.00;94480.19;5066584;28;20212;-69
2022/11/17 09:29:58;;;;;;;2.70;1.77;;;;;;;9.65;100.00;94495.97;5064591;28;20201;-72
2022/11/17 09:32:24;;;;;;;5.83;1.87;;;;;;;9.75;100.00;94505.00;5057171;28;20219;-71
2022/11/17 09:34:51;;;;;;;3.30;1.87;;;;;;;9.69;100.00;94509.28;5056961;28;20200;-72
2022/11/17 09:37:19;;;;;;;5.13;2.30;;;;;;;9.81;100.00;94504.97;5057838;28;20270;-71
2022/11/17 09:39:46;;;;;;;6.73;2.53;;;;;;;9.73;100.00;94507.81;5057732;28;20661;-72
2022/11/17 09:42:14;;;;;;;5.53;2.73;;;;;;;9.76;100.00;94510.03;5058470;28;20204;-72
2022/11/17 09:44:44;;;;;;;5.10;2.20;;;;;;;9.84;100.00;94509.78;5057523;28;20570;-70
2022/11/17 09:47:20;;;;;;;5.80;2.50;;;;;;;9.80;100.00;94519.13;5057945;28;20212;-72
2022/11/17 09:49:55;;;;;;;6.40;2.97;;;;;;;9.77;100.00;94522.16;5065594;28;20223;-69
2022/11/17 09:52:28;;;;;;;8.70;2.60;;;;;;;9.82;100.00;94530.22;5056567;28;20490;-72
2022/11/17 09:54:56;;;;;;;3.77;1.70;;;;;;;9.88;100.00;94526.75;5065409;28;20236;-72
2022/11/17 09:57:33;;;;;;;4.73;1.90;;;;;;;10.06;100.00;94529.47;5058212;28;20668;-71
2022/11/17 10:00:06;;;;;;;4.83;2.30;;;;;;;10.03;100.00;94526.44;5065087;28;20214;-70
2022/11/17 10:02:33;;;;;;;5.53;2.50;;;;;;;10.06;100.00;94518.94;5056895;28;20200;-72
2022/11/17 10:05:00;;;;;;;3.63;2.77;;;;;;;10.16;100.00;94531.63;5057705;28;20211;-71
2022/11/17 10:07:31;;;;;;;6.87;3.00;;;;;;;10.27;100.00;94539.59;5060012;28;20216;-71
2022/11/17 10:10:00;;;;;;;4.33;2.57;;;;;;;10.14;100.00;94529.19;5057791;28;20211;-72
2022/11/17 10:12:35;;;;;;;4.20;2.30;;;;;;;10.35;100.00;94521.72;5057015;28;20243;-69
2022/11/17 10:15:18;;;;;;;5.63;1.90;;;;;;;10.36;100.00;94515.44;5057640;28;20726;-71
2022/11/17 10:17:45;;;;;;;2.47;1.80;;;;;;;10.30;100.00;94510.22;5057035;28;21028;-72
2022/11/17 10:20:15;;;;;;;3.90;2.33;;;;;;;10.46;100.00;94507.03;5057300;28;20200;-72
2022/11/17 10:22:45;;;;;;;2.43;1.63;;;;;;;10.49;100.00;94517.16;5063024;28;20199;-72
2022/11/17 10:25:22;;;;;;;4.37;2.13;;;;;;;10.52;100.00;94525.41;5056978;28;20207;-72
2022/11/17 10:27:52;;;;;;;4.93;1.80;;;;;;;10.62;100.00;94527.53;5057284;28;20219;-72
2022/11/17 10:30:22;;;;;;;2.40;1.80;;;;;;;10.72;100.00;94533.91;5057676;28;20204;-72
2022/11/17 10:32:50;;;;;;;4.10;1.70;;;;;;;10.60;100.00;94545.38;5056553;28;20200;-72
2022/11/17 10:35:20;;;;;;;2.97;1.83;;;;;;;10.71;100.00;94534.13;5057189;28;20208;-73
2022/11/17 10:37:55;;;;;;;3.57;1.87;;;;;;;10.79;100.00;94531.19;5057501;28;20248;-73
2022/11/17 10:40:24;;;;;;;4.50;2.30;;;;;;;10.89;100.00;94528.88;5056482;28;20196;-72
2022/11/17 10:42:58;;;;;;;7.60;3.23;;;;;;;10.91;100.00;94529.44;5056403;28;20616;-74
2022/11/17 10:45:25;;;;;;;6.70;3.50;;;;;;;10.99;100.00;94514.16;5057504;28;20228;-73
2022/11/17 10:47:51;;;;;;;5.93;2.50;;;;;;;10.93;100.00;94514.22;5055990;28;20219;-73
2022/11/17 10:50:24;;;;;;;5.47;2.60;;;;;;;11.03;100.00;94516.09;5056852;28;20718;-73
2022/11/17 10:52:53;;;;;;;5.40;1.90;;;;;;;11.03;100.00;94521.38;5058907;28;20688;-72
2022/11/17 10:55:25;;;;;;;7.23;2.70;;;;;;;11.10;100.00;94519.47;5056658;28;20200;-72
2022/11/17 10:57:56;;;;;;;3.03;1.90;;;;;;;11.29;100.00;94521.06;5056747;28;20224;-72
2022/11/17 11:00:30;;;;;;;2.67;1.67;;;;;;;11.40;100.00;94517.66;5061407;28;20204;-72
2022/11/17 11:03:18;;;;;;;2.00;1.57;;;;;;;11.54;100.00;94529.69;5057601;28;20204;-70
2022/11/17 11:06:21;;;;;;;1.70;1.30;;;;;;;11.55;100.00;94526.81;5053188;28;20204;-71
2022/11/17 11:08:53;;;;;;;2.63;1.37;;;;;;;11.65;100.00;94515.75;5056397;28;20208;-72
2022/11/17 11:11:32;;;;;;;4.73;2.00;;;;;;;11.76;100.00;94507.03;5057035;28;20197;-71
2022/11/17 11:14:05;;;;;;;3.63;1.57;;;;;;;11.70;100.00;94508.75;5063769;28;20196;-72
2022/11/17 11:16:32;;;;;;;5.17;1.23;;;;;;;11.52;100.00;94515.94;5056782;28;20196;-70
2022/11/17 11:18:58;;;;;;;1.40;1.30;;;;;;;11.90;100.00;94509.28;5064290;28;20262;-70
2022/11/17 11:21:42;;;;;;;2.17;1.60;;;;;;;12.29;100.00;94504.13;5057142;28;20196;-73
2022/11/17 11:24:22;;;;;;;3.83;1.80;;;;;;;12.55;100.00;94493.13;5056331;28;20201;-71
2022/11/17 11:27:01;;;;;;;2.13;1.33;;;;;;;12.46;100.00;94497.16;5056259;28;20576;-72
2022/11/17 11:29:34;;;;;;;2.37;0.80;;;;;;;12.72;100.00;94494.03;5056461;28;20202;-71
2022/11/17 11:32:17;;;;;;;1.93;1.30;;;;;;;12.78;100.00;94491.28;5056864;28;20326;-69
2022/11/17 11:35:07;;;;;;;2.67;1.17;;;;;;;12.75;100.00;94498.84;5056007;28;20204;-70
2022/11/17 11:37:39;;;;;;;3.50;1.20;;;;;;;13.06;100.00;94490.53;5055900;28;20224;-72
2022/11/17 11:40:20;;;;;;;1.90;1.00;;;;;;;12.99;100.00;94476.66;5056762;28;20205;-73
2022/11/17 11:42:55;;;;;;;2.50;1.30;;;;;;;12.94;100.00;94476.56;5055511;28;20661;-72
2022/11/17 11:45:29;;;;;;;1.37;0.93;;;;;;;12.84;97.45;94457.81;5056738;28;20307;-73
2022/11/17 11:48:13;;;;;;;5.20;1.10;;;;;;;13.03;99.31;94464.56;5056348;28;20686;-70
2022/11/17 11:50:49;;;;;;;2.10;0.90;;;;;;;13.08;99.68;94462.81;5055965;28;20211;-73
2022/11/17 11:53:22;;;;;;;1.00;0.70;;;;;;;13.18;97.13;94468.31;5055932;28;20200;-70
2022/11/17 11:56:01;;;;;;;1.60;1.17;;;;;;;13.12;96.18;94468.47;5060959;28;20206;-71
2022/11/17 11:58:28;;;;;;;3.67;0.90;;;;;;;12.94;96.01;94471.28;5064023;28;20235;-72
2022/11/17 12:01:01;;;;;;;4.57;1.20;;;;;;;13.14;95.67;94475.13;5062154;28;20204;-71
2022/11/17 12:03:34;;;;;;;1.07;0.70;;;;;;;13.03;93.35;94467.22;5064059;28;20287;-73
2022/11/17 12:09:04;;;;;;;1.17;0.70;;;;;;;13.01;91.52;94466.66;5060327;28;20245;-71